Flight Number: AVA1514 Duration: 8:45
Departure: Moscow Sheremetyevo (UUEE) at 22:00 Distance: 3462.82 Nm
Arrival: Vladivostok Knevichi (UHWW) at 06:45 Equipment: A340

Weather Information
Moscow / Sheremet'Ye , Russia (UUEE) 55-59N 037-30E Oct 22, 2020 - 08:00 AM EDT / 2020.10.22 1200 UTC
Wind: from the S (170 degrees) at 11 MPH (10 KT) (direction variable):0
Visibility: greater than 7 mile(s):0
Sky conditions: overcast Temperature: 42 F (6 C) Dew Point: 37 F (3 C) Relative Humidity: 81% Pressure (altimeter): 29.91 in. Hg (1013 hPa)
ob: UUEE 221200Z 17005MPS 150V220 9999 OVC008 06/03 Q1013 R24L/290051 R24R/290051 NOSIG cycle: 12
Sunrise: 04:22 Sunset: 14:06 (UTC)

Vladivostok, Russia (UHWW) 43-07N 131-56E 183M Oct 22, 2020 - 08:00 AM EDT / 2020.10.22 1200 UTC
Wind: from the N (360 degrees) at 7 MPH (6 KT):0
Visibility: 5 mile(s):0 Temperature: 48 F (9 C) Dew Point: 33 F (1 C) Relative Humidity: 57% Pressure (altimeter): 29.88 in. Hg (1012 hPa)
ob: UHWW 221200Z 36003MPS 9000 NSC 09/01 Q1012 R25L/0///70 NOSIG RMK QFE758 cycle: 12
Sunrise: 21:38 Sunset: 08:13 (UTC)

TAF:2020/10/22 12:21 TAF UHWW 221100Z 2212/2312 36003MPS 5000 HZ BKN030CB TEMPO 2212/2218 0500 FG FM221800 35008MPS 5000 -SHSNRA BKN016CB TEMPO 2218/2312 35012G17MPS 0500 +SHSN

This route has never been flown.

Route map